Prudhoe Bay, AK

3:05 PM AKDT on August 27, 2014 (GMT -0800)
Deadhorse | Change Station
CLOSE
Current Station
Airport
Location: Deadhorse,
Elevation: 59 ft
Nearby Weather Stations

Elev 59 ft 70.19 °N, 148.47 °W | Updated 12 minutes ago

Scattered Clouds
Scattered Clouds
52 °F
Feels Like 52 °F
N
4
Wind Variable Wind from NNE

Today
High -- | Low -- °F
--% Chance of Precip.
Yesterday
High -- | Low -- °F
Precip. -- in
5:47 AM 10:00 PM
Waxing Crescent, 5% visible
Pressure 29.63 in
Visibility 10.0 miles
Clouds Scattered Clouds 1000 ft
Dew Point 41 °F
Humidity 66%
Rainfall 0.00 in
Snow Depth Not available.
UV 2 out of 12
Pollen Not available.
Air Quality Not available.
Flu Activity Not available.
METAR PASC 272253Z AUTO 03003KT 10SM SCT010 11/05 A2963 RMK AO2 SLP033 T01110050 TSNO

More Conditions Fewer Conditions

Pressure 29.63 in
Visibility 10.0 miles
Clouds Scattered Clouds 1000 ft
Dew Point 41 °F
Humidity 66%
Rainfall 0.00 in
Snow Depth Not available.
UV 2 out of 12
Pollen Not available.
Air Quality Not available.
Flu Activity Not available.
METAR PASC 272253Z AUTO 03003KT 10SM SCT010 11/05 A2963 RMK AO2 SLP033 T01110050 TSNO

More Conditions Fewer Conditions

10-Day Weather Forecast

Almanac

Astronomy

Aug. 27, 2014 Rise Set
Actual Time 5:47 AM AKDT 10:00 PM AKDT
Civil Twilight 4:22 AM AKDT 11:23 PM AKDT
Nautical Twilight Sun does not rise Sun does not rise
Astronomical Twilight Sun does not rise Sun does not rise
Moon 9:30 AM AKDT 9:07 PM AKDT
Length of Visible Light 19h 00m
Length of Day
16h 13m
Tomorrow will be 9m 27s shorter.
Waxing Crescent, 5% of the Moon is Illuminated
Today
Waxing Crescent
Sep 2
First Quarter
Sep 8
Full
Sep 15
Last Quarter
Sep 24
New

Today's Extremes

State Highs State Lows

Community

WunderPhotos

Upload Photos

1,747,814 photos uploaded!

Nearby

Snow Depth

Station Depth Elevation
Atigun Pass 0 in 4800 ft
Coldfoot 0 in 1040 ft
Gobblers Knob 0 in 2030 ft
Fort Yukon 1 in 430 ft
Eagle Summit 1 in 3650 ft

Earthquake Activity

City Distance Mag. Time & Date
No recent earthquake activity has been reported nearby.
Minimum magnitude displayed is 2.5.

Coastal Water Temperatures

Place Temperature
No Stations Reporting

Nearby Weather Stations